PATC/TNC METAR and TAF weather

Enter ICAO airport designator
Station Type Date Time Source
PATC METAR 2022/01/26 20:55 UTC NOAA

PATC 262055Z AUTO 04008KT 10SM CLR M25/M28 A3054 RMK AO2 SLP358 T12551280 52007


Station Type Date Time Source
PATC Decoded METAR 2022/01/26 20:55 UTC NOAA

Tin City Airways Facilities Sector, AK, United States (PATC) 65-34N 167-55W
Jan 26, 2022 - 03:55 PM EST / 2022.01.26 2055 UTC
Wind: from the NE (040 degrees) at 9 MPH (8 KT):0
Visibility: 10 mile(s):0
Sky conditions: clear
Temperature: -13.9 F (-25.5 C)
Windchill: -32 F (-36 C):2
Dew Point: -18.4 F (-28.0 C)
Relative Humidity: 79%
Pressure (altimeter): 30.54 in. Hg (1034 hPa)
Pressure tendency: 0.02 inches (0.7 hPa) higher than three hours ago
ob: PATC 262055Z AUTO 04008KT 10SM CLR M25/M28 A3054 RMK AO2 SLP358 T12551280 52007
cycle: 21

Station Type Date Time Source
PATC TAF 2016/08/27 04:12 UTC NOAA

TAF PATC 270400Z 2704/2810 18012G18KT 0400 FG OVC002 QNH3015INS TX10/2718Z TN06/2710Z

Example: see airport list